sensor_id;sensor_type;location;lat;lon;timestamp;pressure;altitude;pressure_sealevel;temperature;humidity
29433;BME280;16405;53.964;13.448;2022-07-09T00:00:54;101954.72;;;12.97;100.00
29433;BME280;16405;53.964;13.448;2022-07-09T00:03:20;101952.13;;;12.95;100.00
29433;BME280;16405;53.964;13.448;2022-07-09T00:05:46;101949.47;;;12.95;100.00
29433;BME280;16405;53.964;13.448;2022-07-09T00:08:12;101957.59;;;12.90;100.00
29433;BME280;16405;53.964;13.448;2022-07-09T00:10:37;101958.63;;;12.86;100.00
29433;BME280;16405;53.964;13.448;2022-07-09T00:13:06;101950.00;;;12.81;100.00
29433;BME280;16405;53.964;13.448;2022-07-09T00:15:32;101945.56;;;12.82;100.00
29433;BME280;16405;53.964;13.448;2022-07-09T00:17:57;101956.03;;;12.85;100.00
29433;BME280;16405;53.964;13.448;2022-07-09T00:20:23;101949.25;;;12.78;100.00
29433;BME280;16405;53.964;13.448;2022-07-09T00:22:49;101955.28;;;12.81;100.00
29433;BME280;16405;53.964;13.448;2022-07-09T00:25:15;101946.34;;;12.85;100.00
29433;BME280;16405;53.964;13.448;2022-07-09T00:27:41;101954.19;;;12.87;100.00
29433;BME280;16405;53.964;13.448;2022-07-09T00:30:07;101950.69;;;12.86;100.00
29433;BME280;16405;53.964;13.448;2022-07-09T00:32:33;101943.91;;;12.79;100.00
29433;BME280;16405;53.964;13.448;2022-07-09T00:34:59;101943.09;;;12.77;100.00
29433;BME280;16405;53.964;13.448;2022-07-09T00:37:25;101941.50;;;12.73;100.00
29433;BME280;16405;53.964;13.448;2022-07-09T00:39:51;101940.56;;;12.74;100.00
29433;BME280;16405;53.964;13.448;2022-07-09T00:42:17;101936.31;;;12.70;100.00
29433;BME280;16405;53.964;13.448;2022-07-09T00:44:42;101932.88;;;12.68;100.00
29433;BME280;16405;53.964;13.448;2022-07-09T00:47:08;101937.34;;;12.66;100.00
29433;BME280;16405;53.964;13.448;2022-07-09T00:49:39;101926.88;;;12.63;100.00
29433;BME280;16405;53.964;13.448;2022-07-09T00:52:07;101928.88;;;12.56;100.00
29433;BME280;16405;53.964;13.448;2022-07-09T00:54:36;101921.13;;;12.51;100.00
29433;BME280;16405;53.964;13.448;2022-07-09T00:57:05;101923.94;;;12.47;100.00
29433;BME280;16405;53.964;13.448;2022-07-09T00:59:32;101916.09;;;12.44;100.00
29433;BME280;16405;53.964;13.448;2022-07-09T01:02:00;101912.81;;;12.37;100.00
29433;BME280;16405;53.964;13.448;2022-07-09T01:04:27;101911.09;;;12.36;100.00
29433;BME280;16405;53.964;13.448;2022-07-09T01:06:53;101907.84;;;12.28;100.00
29433;BME280;16405;53.964;13.448;2022-07-09T01:09:19;101918.53;;;12.25;100.00
29433;BME280;16405;53.964;13.448;2022-07-09T01:11:46;101914.28;;;12.21;100.00
29433;BME280;16405;53.964;13.448;2022-07-09T01:14:13;101918.75;;;12.19;100.00
29433;BME280;16405;53.964;13.448;2022-07-09T01:16:39;101912.81;;;12.12;100.00
29433;BME280;16405;53.964;13.448;2022-07-09T01:19:05;101905.16;;;12.04;100.00
29433;BME280;16405;53.964;13.448;2022-07-09T01:21:31;101908.72;;;12.03;100.00
29433;BME280;16405;53.964;13.448;2022-07-09T01:23:57;101907.69;;;12.07;100.00
29433;BME280;16405;53.964;13.448;2022-07-09T01:26:24;101904.00;;;12.11;100.00
29433;BME280;16405;53.964;13.448;2022-07-09T01:28:51;101903.81;;;12.18;100.00
29433;BME280;16405;53.964;13.448;2022-07-09T01:31:17;101898.44;;;12.21;100.00
29433;BME280;16405;53.964;13.448;2022-07-09T01:33:43;101898.22;;;12.27;100.00
29433;BME280;16405;53.964;13.448;2022-07-09T01:36:10;101894.50;;;12.32;100.00
29433;BME280;16405;53.964;13.448;2022-07-09T01:38:36;101896.16;;;12.35;100.00
29433;BME280;16405;53.964;13.448;2022-07-09T01:41:02;101898.78;;;12.35;100.00
29433;BME280;16405;53.964;13.448;2022-07-09T01:43:27;101893.28;;;12.41;100.00
29433;BME280;16405;53.964;13.448;2022-07-09T01:45:53;101895.84;;;12.44;100.00
29433;BME280;16405;53.964;13.448;2022-07-09T01:48:22;101893.88;;;12.49;100.00
29433;BME280;16405;53.964;13.448;2022-07-09T01:50:48;101884.13;;;12.51;100.00
29433;BME280;16405;53.964;13.448;2022-07-09T01:53:14;101889.28;;;12.55;100.00
29433;BME280;16405;53.964;13.448;2022-07-09T01:55:40;101889.53;;;12.48;100.00
29433;BME280;16405;53.964;13.448;2022-07-09T01:58:06;101893.09;;;12.47;100.00
29433;BME280;16405;53.964;13.448;2022-07-09T02:00:32;101889.63;;;12.45;100.00
29433;BME280;16405;53.964;13.448;2022-07-09T02:02:58;101882.50;;;12.47;100.00
29433;BME280;16405;53.964;13.448;2022-07-09T02:05:24;101879.03;;;12.47;100.00
29433;BME280;16405;53.964;13.448;2022-07-09T02:07:49;101880.72;;;12.48;100.00
29433;BME280;16405;53.964;13.448;2022-07-09T02:10:16;101878.03;;;12.49;100.00
29433;BME280;16405;53.964;13.448;2022-07-09T02:12:42;101875.28;;;12.52;100.00
29433;BME280;16405;53.964;13.448;2022-07-09T02:15:09;101884.13;;;12.51;100.00
29433;BME280;16405;53.964;13.448;2022-07-09T02:17:36;101874.41;;;12.52;100.00
29433;BME280;16405;53.964;13.448;2022-07-09T02:20:03;101870.78;;;12.55;100.00
29433;BME280;16405;53.964;13.448;2022-07-09T02:22:29;101876.88;;;12.57;100.00
29433;BME280;16405;53.964;13.448;2022-07-09T02:24:55;101862.78;;;12.58;100.00
29433;BME280;16405;53.964;13.448;2022-07-09T02:27:21;101872.38;;;12.60;100.00
29433;BME280;16405;53.964;13.448;2022-07-09T02:29:47;101875.94;;;12.59;100.00
29433;BME280;16405;53.964;13.448;2022-07-09T02:32:13;101874.03;;;12.63;100.00
29433;BME280;16405;53.964;13.448;2022-07-09T02:34:39;101874.16;;;12.60;100.00
29433;BME280;16405;53.964;13.448;2022-07-09T02:37:06;101867.09;;;12.60;100.00
29433;BME280;16405;53.964;13.448;2022-07-09T02:39:32;101874.03;;;12.63;100.00
29433;BME280;16405;53.964;13.448;2022-07-09T02:41:58;101872.19;;;12.65;100.00
29433;BME280;16405;53.964;13.448;2022-07-09T02:44:24;101869.44;;;12.68;100.00
29433;BME280;16405;53.964;13.448;2022-07-09T02:46:50;101872.16;;;12.66;100.00
29433;BME280;16405;53.964;13.448;2022-07-09T02:49:16;101870.25;;;12.70;100.00
29433;BME280;16405;53.964;13.448;2022-07-09T02:51:42;101875.75;;;12.64;100.00
29433;BME280;16405;53.964;13.448;2022-07-09T02:54:08;101868.75;;;12.63;100.00
29433;BME280;16405;53.964;13.448;2022-07-09T02:56:34;101876.56;;;12.66;100.00
29433;BME280;16405;53.964;13.448;2022-07-09T02:59:00;101873.03;;;12.65;100.00
29433;BME280;16405;53.964;13.448;2022-07-09T03:01:28;101876.50;;;12.67;100.00
29433;BME280;16405;53.964;13.448;2022-07-09T03:03:54;101874.63;;;12.71;100.00
29433;BME280;16405;53.964;13.448;2022-07-09T03:06:20;101872.59;;;12.78;100.00
29433;BME280;16405;53.964;13.448;2022-07-09T03:08:45;101868.97;;;12.80;100.00
29433;BME280;16405;53.964;13.448;2022-07-09T03:11:11;101875.00;;;12.84;100.00
29433;BME280;16405;53.964;13.448;2022-07-09T03:13:37;101868.56;;;12.91;100.00
29433;BME280;16405;53.964;13.448;2022-07-09T03:16:05;101870.19;;;12.95;100.00
29433;BME280;16405;53.964;13.448;2022-07-09T03:18:32;101872.53;;;13.03;100.00
29433;BME280;16405;53.964;13.448;2022-07-09T03:20:59;101869.56;;;13.10;100.00
29433;BME280;16405;53.964;13.448;2022-07-09T03:23:25;101856.97;;;13.17;100.00
29433;BME280;16405;53.964;13.448;2022-07-09T03:25:51;101857.59;;;13.24;100.00
29433;BME280;16405;53.964;13.448;2022-07-09T03:28:17;101850.38;;;13.29;100.00
29433;BME280;16405;53.964;13.448;2022-07-09T03:30:42;101852.84;;;13.33;100.00
29433;BME280;16405;53.964;13.448;2022-07-09T03:33:11;101849.22;;;13.36;100.00
29433;BME280;16405;53.964;13.448;2022-07-09T03:35:36;101851.59;;;13.42;100.00
29433;BME280;16405;53.964;13.448;2022-07-09T03:38:04;101855.06;;;13.44;100.00
29433;BME280;16405;53.964;13.448;2022-07-09T03:40:30;101846.06;;;13.48;100.00
29433;BME280;16405;53.964;13.448;2022-07-09T03:42:56;101838.75;;;13.55;100.00
29433;BME280;16405;53.964;13.448;2022-07-09T03:45:22;101849.06;;;13.61;100.00
29433;BME280;16405;53.964;13.448;2022-07-09T03:47:47;101841.78;;;13.66;100.00
29433;BME280;16405;53.964;13.448;2022-07-09T03:50:14;101836.25;;;13.72;100.00
29433;BME280;16405;53.964;13.448;2022-07-09T03:52:40;101841.41;;;13.75;100.00
29433;BME280;16405;53.964;13.448;2022-07-09T03:55:06;101836.91;;;13.78;100.00
29433;BME280;16405;53.964;13.448;2022-07-09T03:57:32;101835.94;;;13.80;100.00
29433;BME280;16405;53.964;13.448;2022-07-09T03:59:58;101825.94;;;13.87;100.00
29433;BME280;16405;53.964;13.448;2022-07-09T04:02:24;101823.94;;;13.92;100.00
29433;BME280;16405;53.964;13.448;2022-07-09T04:04:49;101823.22;;;13.88;100.00
29433;BME280;16405;53.964;13.448;2022-07-09T04:07:15;101837.34;;;13.89;100.00
29433;BME280;16405;53.964;13.448;2022-07-09T04:09:41;101834.53;;;13.92;100.00
29433;BME280;16405;53.964;13.448;2022-07-09T04:12:07;101836.13;;;13.96;100.00
29433;BME280;16405;53.964;13.448;2022-07-09T04:14:34;101833.22;;;14.02;100.00
29433;BME280;16405;53.964;13.448;2022-07-09T04:17:00;101833.88;;;14.07;100.00
29433;BME280;16405;53.964;13.448;2022-07-09T04:19:26;101830.00;;;14.14;100.00
29433;BME280;16405;53.964;13.448;2022-07-09T04:21:51;101834.19;;;14.20;100.00
29433;BME280;16405;53.964;13.448;2022-07-09T04:24:19;101826.84;;;14.27;100.00
29433;BME280;16405;53.964;13.448;2022-07-09T04:26:45;101829.06;;;14.36;100.00
29433;BME280;16405;53.964;13.448;2022-07-09T04:29:11;101834.09;;;14.42;100.00
29433;BME280;16405;53.964;13.448;2022-07-09T04:31:36;101831.78;;;14.55;100.00
29433;BME280;16405;53.964;13.448;2022-07-09T04:34:02;101818.19;;;14.63;100.00
29433;BME280;16405;53.964;13.448;2022-07-09T04:36:28;101818.75;;;14.69;100.00
29433;BME280;16405;53.964;13.448;2022-07-09T04:38:54;101832.81;;;14.71;100.00
29433;BME280;16405;53.964;13.448;2022-07-09T04:41:21;101820.41;;;14.72;100.00
29433;BME280;16405;53.964;13.448;2022-07-09T04:43:47;101818.53;;;14.74;100.00
29433;BME280;16405;53.964;13.448;2022-07-09T04:46:13;101814.19;;;14.73;100.00
29433;BME280;16405;53.964;13.448;2022-07-09T04:48:39;101821.97;;;14.76;100.00
29433;BME280;16405;53.964;13.448;2022-07-09T04:51:05;101827.84;;;14.83;100.00
29433;BME280;16405;53.964;13.448;2022-07-09T04:53:31;101819.75;;;14.86;100.00
29433;BME280;16405;53.964;13.448;2022-07-09T04:55:57;101821.25;;;14.91;100.00
29433;BME280;16405;53.964;13.448;2022-07-09T04:58:23;101817.47;;;14.97;100.00
29433;BME280;16405;53.964;13.448;2022-07-09T05:00:49;101825.03;;;15.05;100.00
29433;BME280;16405;53.964;13.448;2022-07-09T05:03:14;101819.66;;;15.06;100.00
29433;BME280;16405;53.964;13.448;2022-07-09T05:05:40;101820.41;;;15.10;100.00
29433;BME280;16405;53.964;13.448;2022-07-09T05:08:06;101818.53;;;15.12;100.00
29433;BME280;16405;53.964;13.448;2022-07-09T05:10:32;101820.00;;;15.17;100.00
29433;BME280;16405;53.964;13.448;2022-07-09T05:12:58;101817.78;;;15.27;100.00
29433;BME280;16405;53.964;13.448;2022-07-09T05:15:23;101812.88;;;15.37;100.00
29433;BME280;16405;53.964;13.448;2022-07-09T05:17:49;101819.44;;;15.47;99.69
29433;BME280;16405;53.964;13.448;2022-07-09T05:20:15;101816.25;;;15.58;98.95
29433;BME280;16405;53.964;13.448;2022-07-09T05:22:40;101823.81;;;15.66;98.65
29433;BME280;16405;53.964;13.448;2022-07-09T05:25:06;101824.47;;;15.71;97.28
29433;BME280;16405;53.964;13.448;2022-07-09T05:27:39;101822.44;;;15.76;97.16
29433;BME280;16405;53.964;13.448;2022-07-09T05:30:06;101821.28;;;15.82;96.37
29433;BME280;16405;53.964;13.448;2022-07-09T05:32:34;101808.69;;;15.85;96.19
29433;BME280;16405;53.964;13.448;2022-07-09T05:35:00;101817.63;;;15.84;96.07
29433;BME280;16405;53.964;13.448;2022-07-09T05:37:26;101808.78;;;15.84;96.32
29433;BME280;16405;53.964;13.448;2022-07-09T05:39:51;101801.75;;;15.83;96.48
29433;BME280;16405;53.964;13.448;2022-07-09T05:42:17;101799.88;;;15.85;96.43
29433;BME280;16405;53.964;13.448;2022-07-09T05:44:43;101815.81;;;15.85;96.99
29433;BME280;16405;53.964;13.448;2022-07-09T05:47:09;101813.16;;;15.85;97.34
29433;BME280;16405;53.964;13.448;2022-07-09T05:49:34;101812.00;;;15.90;98.00
29433;BME280;16405;53.964;13.448;2022-07-09T05:52:00;101809.88;;;15.97;98.11
29433;BME280;16405;53.964;13.448;2022-07-09T05:54:26;101813.91;;;16.04;98.13
29433;BME280;16405;53.964;13.448;2022-07-09T05:56:51;101811.78;;;16.11;97.65
29433;BME280;16405;53.964;13.448;2022-07-09T05:59:17;101794.09;;;16.27;97.46
29433;BME280;16405;53.964;13.448;2022-07-09T06:01:43;101790.16;;;16.34;96.59
29433;BME280;16405;53.964;13.448;2022-07-09T06:04:09;101789.06;;;16.38;96.82
29433;BME280;16405;53.964;13.448;2022-07-09T06:06:37;101791.66;;;16.40;97.48
29433;BME280;16405;53.964;13.448;2022-07-09T06:09:03;101802.72;;;16.48;98.33
29433;BME280;16405;53.964;13.448;2022-07-09T06:11:29;101790.22;;;16.66;97.86
29433;BME280;16405;53.964;13.448;2022-07-09T06:13:55;101792.22;;;16.78;98.18
29433;BME280;16405;53.964;13.448;2022-07-09T06:16:24;101777.91;;;16.81;97.52
29433;BME280;16405;53.964;13.448;2022-07-09T06:18:49;101778.59;;;16.85;97.19
29433;BME280;16405;53.964;13.448;2022-07-09T06:21:15;101780.22;;;16.87;97.19
29433;BME280;16405;53.964;13.448;2022-07-09T06:23:41;101776.59;;;16.88;97.50
29433;BME280;16405;53.964;13.448;2022-07-09T06:26:07;101788.00;;;16.90;97.78
29433;BME280;16405;53.964;13.448;2022-07-09T06:28:35;101790.09;;;16.85;98.16
29433;BME280;16405;53.964;13.448;2022-07-09T06:31:01;101786.47;;;16.86;98.24
29433;BME280;16405;53.964;13.448;2022-07-09T06:33:27;101789.75;;;16.91;98.45
29433;BME280;16405;53.964;13.448;2022-07-09T06:35:53;101793.53;;;16.87;99.70
29433;BME280;16405;53.964;13.448;2022-07-09T06:38:18;101785.34;;;16.90;99.32
29433;BME280;16405;53.964;13.448;2022-07-09T06:40:44;101791.53;;;16.91;99.69
29433;BME280;16405;53.964;13.448;2022-07-09T06:43:10;101795.56;;;16.98;99.44
29433;BME280;16405;53.964;13.448;2022-07-09T06:45:36;101794.19;;;17.07;99.56
29433;BME280;16405;53.964;13.448;2022-07-09T06:48:03;101798.56;;;17.08;100.00
29433;BME280;16405;53.964;13.448;2022-07-09T06:50:29;101797.53;;;17.10;99.72
29433;BME280;16405;53.964;13.448;2022-07-09T06:52:54;101808.66;;;17.17;99.61
29433;BME280;16405;53.964;13.448;2022-07-09T06:55:20;101803.53;;;17.14;99.67
29433;BME280;16405;53.964;13.448;2022-07-09T06:57:47;101798.28;;;17.12;100.00
29433;BME280;16405;53.964;13.448;2022-07-09T07:00:13;101798.63;;;17.22;99.81
29433;BME280;16405;53.964;13.448;2022-07-09T07:02:41;101800.31;;;17.39;99.93
29433;BME280;16405;53.964;13.448;2022-07-09T07:05:07;101801.81;;;17.59;99.93
29433;BME280;16405;53.964;13.448;2022-07-09T07:07:33;101800.81;;;17.76;98.30
29433;BME280;16405;53.964;13.448;2022-07-09T07:09:59;101804.56;;;17.88;97.85
29433;BME280;16405;53.964;13.448;2022-07-09T07:12:25;101803.38;;;17.77;96.54
29433;BME280;16405;53.964;13.448;2022-07-09T07:14:50;101797.19;;;17.93;97.11
29433;BME280;16405;53.964;13.448;2022-07-09T07:17:16;101789.19;;;18.21;95.84
29433;BME280;16405;53.964;13.448;2022-07-09T07:19:42;101796.00;;;19.24;91.42
29433;BME280;16405;53.964;13.448;2022-07-09T07:22:08;101797.19;;;19.86;86.17
29433;BME280;16405;53.964;13.448;2022-07-09T07:24:36;101800.34;;;21.05;80.36
29433;BME280;16405;53.964;13.448;2022-07-09T07:27:02;101788.69;;;21.06;78.95
29433;BME280;16405;53.964;13.448;2022-07-09T07:29:28;101785.56;;;20.75;79.16
29433;BME280;16405;53.964;13.448;2022-07-09T07:31:54;101784.03;;;20.34;80.06
29433;BME280;16405;53.964;13.448;2022-07-09T07:34:21;101782.88;;;20.00;81.44
29433;BME280;16405;53.964;13.448;2022-07-09T07:36:49;101791.84;;;19.73;82.02
29433;BME280;16405;53.964;13.448;2022-07-09T07:39:16;101777.09;;;19.80;82.50
29433;BME280;16405;53.964;13.448;2022-07-09T07:41:41;101783.50;;;19.78;82.45
29433;BME280;16405;53.964;13.448;2022-07-09T07:44:07;101784.44;;;20.90;80.35
29433;BME280;16405;53.964;13.448;2022-07-09T07:46:33;101790.81;;;21.84;76.16
29433;BME280;16405;53.964;13.448;2022-07-09T07:48:58;101792.22;;;21.66;73.61
29433;BME280;16405;53.964;13.448;2022-07-09T07:51:24;101789.00;;;21.96;73.29
29433;BME280;16405;53.964;13.448;2022-07-09T07:53:50;101782.66;;;21.86;72.25
29433;BME280;16405;53.964;13.448;2022-07-09T07:56:16;101782.00;;;21.60;73.72
29433;BME280;16405;53.964;13.448;2022-07-09T07:58:41;101775.00;;;21.46;74.22
29433;BME280;16405;53.964;13.448;2022-07-09T08:01:07;101777.72;;;21.33;74.05
29433;BME280;16405;53.964;13.448;2022-07-09T08:03:33;101772.78;;;21.16;74.90
29433;BME280;16405;53.964;13.448;2022-07-09T08:05:59;101779.44;;;21.10;75.09
29433;BME280;16405;53.964;13.448;2022-07-09T08:08:26;101768.66;;;20.99;74.89
29433;BME280;16405;53.964;13.448;2022-07-09T08:10:52;101777.56;;;22.62;72.36
29433;BME280;16405;53.964;13.448;2022-07-09T08:13:18;101792.16;;;23.35;69.01
29433;BME280;16405;53.964;13.448;2022-07-09T08:15:44;101783.22;;;23.13;67.98
29433;BME280;16405;53.964;13.448;2022-07-09T08:18:10;101777.13;;;22.89;68.13
29433;BME280;16405;53.964;13.448;2022-07-09T08:20:40;101765.88;;;22.40;69.27
29433;BME280;16405;53.964;13.448;2022-07-09T08:23:06;101769.59;;;21.81;70.83
29433;BME280;16405;53.964;13.448;2022-07-09T08:25:33;101767.28;;;21.77;71.84
29433;BME280;16405;53.964;13.448;2022-07-09T08:27:59;101768.94;;;22.36;70.02
29433;BME280;16405;53.964;13.448;2022-07-09T08:30:33;101769.66;;;22.26;69.69
29433;BME280;16405;53.964;13.448;2022-07-09T08:33:02;101770.13;;;23.20;68.50
29433;BME280;16405;53.964;13.448;2022-07-09T08:35:28;101768.50;;;23.50;67.27
29433;BME280;16405;53.964;13.448;2022-07-09T08:37:54;101765.38;;;23.87;64.87
29433;BME280;16405;53.964;13.448;2022-07-09T08:40:21;101763.88;;;24.04;63.56
29433;BME280;16405;53.964;13.448;2022-07-09T08:42:49;101752.59;;;24.10;63.14
29433;BME280;16405;53.964;13.448;2022-07-09T08:45:20;101751.75;;;24.09;63.86
29433;BME280;16405;53.964;13.448;2022-07-09T08:47:47;101761.28;;;23.29;65.25
29433;BME280;16405;53.964;13.448;2022-07-09T08:50:13;101755.06;;;23.29;64.83
29433;BME280;16405;53.964;13.448;2022-07-09T08:52:43;101748.44;;;23.33;65.86
29433;BME280;16405;53.964;13.448;2022-07-09T08:55:09;101759.69;;;23.27;66.00
29433;BME280;16405;53.964;13.448;2022-07-09T08:57:38;101738.91;;;23.08;65.65
29433;BME280;16405;53.964;13.448;2022-07-09T09:00:06;101750.81;;;23.15;65.46
29433;BME280;16405;53.964;13.448;2022-07-09T09:02:36;101752.88;;;22.79;66.11
29433;BME280;16405;53.964;13.448;2022-07-09T09:05:13;101752.72;;;22.26;68.87
29433;BME280;16405;53.964;13.448;2022-07-09T09:07:40;101750.44;;;21.63;70.19
29433;BME280;16405;53.964;13.448;2022-07-09T09:10:21;101751.59;;;21.13;72.76
29433;BME280;16405;53.964;13.448;2022-07-09T09:12:48;101744.50;;;21.12;73.83
29433;BME280;16405;53.964;13.448;2022-07-09T09:15:20;101747.88;;;21.62;75.24
29433;BME280;16405;53.964;13.448;2022-07-09T09:17:46;101742.19;;;22.00;72.85
29433;BME280;16405;53.964;13.448;2022-07-09T09:20:21;101741.38;;;22.34;72.47
29433;BME280;16405;53.964;13.448;2022-07-09T09:22:53;101739.44;;;22.36;68.60
29433;BME280;16405;53.964;13.448;2022-07-09T09:25:31;101748.31;;;22.36;68.00
29433;BME280;16405;53.964;13.448;2022-07-09T09:28:00;101737.81;;;21.88;67.39
29433;BME280;16405;53.964;13.448;2022-07-09T09:30:30;101746.56;;;21.32;71.21
29433;BME280;16405;53.964;13.448;2022-07-09T09:33:03;101753.00;;;21.65;71.27
29433;BME280;16405;53.964;13.448;2022-07-09T09:35:36;101750.59;;;21.84;71.40
29433;BME280;16405;53.964;13.448;2022-07-09T09:38:07;101750.25;;;22.11;71.00
29433;BME280;16405;53.964;13.448;2022-07-09T09:40:35;101740.84;;;22.62;68.66
29433;BME280;16405;53.964;13.448;2022-07-09T09:43:02;101755.41;;;22.92;64.84
29433;BME280;16405;53.964;13.448;2022-07-09T09:45:29;101733.47;;;22.76;64.64
29433;BME280;16405;53.964;13.448;2022-07-09T09:47:58;101732.06;;;22.60;64.20
29433;BME280;16405;53.964;13.448;2022-07-09T09:50:27;101737.19;;;22.07;63.87
29433;BME280;16405;53.964;13.448;2022-07-09T09:52:56;101722.03;;;21.49;65.14
29433;BME280;16405;53.964;13.448;2022-07-09T09:55:26;101729.59;;;21.31;66.51
29433;BME280;16405;53.964;13.448;2022-07-09T09:57:54;101731.91;;;21.25;66.26
29433;BME280;16405;53.964;13.448;2022-07-09T10:00:24;101736.19;;;21.63;65.90
29433;BME280;16405;53.964;13.448;2022-07-09T10:02:50;101726.94;;;22.01;61.54
29433;BME280;16405;53.964;13.448;2022-07-09T10:05:19;101717.81;;;22.37;61.04
29433;BME280;16405;53.964;13.448;2022-07-09T10:07:48;101729.50;;;22.70;58.11
29433;BME280;16405;53.964;13.448;2022-07-09T10:10:20;101712.31;;;22.05;54.91
29433;BME280;16405;53.964;13.448;2022-07-09T10:12:49;101719.16;;;22.09;57.14
29433;BME280;16405;53.964;13.448;2022-07-09T10:15:26;101718.94;;;22.23;57.02
29433;BME280;16405;53.964;13.448;2022-07-09T10:17:53;101717.44;;;22.42;56.69
29433;BME280;16405;53.964;13.448;2022-07-09T10:20:37;101709.19;;;22.22;56.06
29433;BME280;16405;53.964;13.448;2022-07-09T10:23:08;101711.25;;;22.30;56.40
29433;BME280;16405;53.964;13.448;2022-07-09T10:25:50;101717.72;;;22.27;54.16
29433;BME280;16405;53.964;13.448;2022-07-09T10:28:22;101720.13;;;21.74;55.75
29433;BME280;16405;53.964;13.448;2022-07-09T10:30:52;101724.84;;;21.59;56.41
29433;BME280;16405;53.964;13.448;2022-07-09T10:33:35;101728.53;;;21.92;55.82
29433;BME280;16405;53.964;13.448;2022-07-09T10:36:30;101714.06;;;21.37;55.84
29433;BME280;16405;53.964;13.448;2022-07-09T10:38:59;101708.69;;;21.01;57.62
29433;BME280;16405;53.964;13.448;2022-07-09T10:41:25;101726.41;;;21.50;58.92
29433;BME280;16405;53.964;13.448;2022-07-09T10:43:57;101725.63;;;22.06;55.91
29433;BME280;16405;53.964;13.448;2022-07-09T10:46:26;101733.56;;;22.53;55.41
29433;BME280;16405;53.964;13.448;2022-07-09T10:48:55;101728.75;;;22.68;55.02
29433;BME280;16405;53.964;13.448;2022-07-09T10:51:24;101727.47;;;22.40;55.81
29433;BME280;16405;53.964;13.448;2022-07-09T10:53:53;101731.63;;;22.32;55.85
29433;BME280;16405;53.964;13.448;2022-07-09T10:56:22;101726.00;;;22.02;55.72
29433;BME280;16405;53.964;13.448;2022-07-09T10:58:51;101726.72;;;22.04;55.96
29433;BME280;16405;53.964;13.448;2022-07-09T11:01:24;101729.53;;;22.36;56.19
29433;BME280;16405;53.964;13.448;2022-07-09T11:03:56;101729.88;;;22.54;54.65
29433;BME280;16405;53.964;13.448;2022-07-09T11:06:22;101724.69;;;22.73;54.65
29433;BME280;16405;53.964;13.448;2022-07-09T11:08:48;101712.34;;;22.39;52.87
29433;BME280;16405;53.964;13.448;2022-07-09T11:11:27;101736.38;;;22.40;53.93
29433;BME280;16405;53.964;13.448;2022-07-09T11:13:56;101739.44;;;22.36;53.94
29433;BME280;16405;53.964;13.448;2022-07-09T11:16:26;101735.25;;;21.86;55.18
29433;BME280;16405;53.964;13.448;2022-07-09T11:18:52;101725.47;;;21.74;54.70
29433;BME280;16405;53.964;13.448;2022-07-09T11:21:28;101721.84;;;22.09;53.66
29433;BME280;16405;53.964;13.448;2022-07-09T11:23:57;101718.94;;;22.12;54.08
29433;BME280;16405;53.964;13.448;2022-07-09T11:26:23;101736.19;;;21.74;53.60
29433;BME280;16405;53.964;13.448;2022-07-09T11:28:49;101724.94;;;21.46;55.28
29433;BME280;16405;53.964;13.448;2022-07-09T11:31:16;101731.94;;;21.94;56.44
29433;BME280;16405;53.964;13.448;2022-07-09T11:33:42;101727.47;;;22.40;54.12
29433;BME280;16405;53.964;13.448;2022-07-09T11:36:38;101724.88;;;23.04;51.87
29433;BME280;16405;53.964;13.448;2022-07-09T11:39:05;101731.59;;;23.31;52.45
29433;BME280;16405;53.964;13.448;2022-07-09T11:41:44;101725.81;;;23.36;53.91
29433;BME280;16405;53.964;13.448;2022-07-09T11:44:10;101724.63;;;23.07;53.64
29433;BME280;16405;53.964;13.448;2022-07-09T11:46:39;101718.06;;;22.89;54.23
29433;BME280;16405;53.964;13.448;2022-07-09T11:49:14;101707.34;;;22.34;53.88
29433;BME280;16405;53.964;13.448;2022-07-09T11:51:41;101716.47;;;21.98;54.80
29433;BME280;16405;53.964;13.448;2022-07-09T11:54:07;101715.75;;;21.38;54.18
29433;BME280;16405;53.964;13.448;2022-07-09T11:56:45;101700.38;;;21.28;54.61
29433;BME280;16405;53.964;13.448;2022-07-09T11:59:13;101711.53;;;21.11;55.25
29433;BME280;16405;53.964;13.448;2022-07-09T12:01:50;101710.38;;;21.73;54.35
29433;BME280;16405;53.964;13.448;2022-07-09T12:04:19;101709.66;;;21.82;53.80
29433;BME280;16405;53.964;13.448;2022-07-09T12:06:52;101703.28;;;21.61;53.29
29433;BME280;16405;53.964;13.448;2022-07-09T12:09:32;101707.22;;;21.90;52.88
29433;BME280;16405;53.964;13.448;2022-07-09T12:12:01;101707.94;;;22.15;53.17
29433;BME280;16405;53.964;13.448;2022-07-09T12:14:28;101714.00;;;22.62;53.24
29433;BME280;16405;53.964;13.448;2022-07-09T12:16:54;101697.09;;;22.83;52.36
29433;BME280;16405;53.964;13.448;2022-07-09T12:19:20;101713.69;;;22.88;51.89
29433;BME280;16405;53.964;13.448;2022-07-09T12:21:46;101713.22;;;23.15;51.72
29433;BME280;16405;53.964;13.448;2022-07-09T12:24:13;101699.03;;;22.92;50.73
29433;BME280;16405;53.964;13.448;2022-07-09T12:26:38;101696.59;;;22.45;51.70
29433;BME280;16405;53.964;13.448;2022-07-09T12:29:04;101700.97;;;22.58;51.27
29433;BME280;16405;53.964;13.448;2022-07-09T12:31:30;101681.00;;;22.28;52.48
29433;BME280;16405;53.964;13.448;2022-07-09T12:33:56;101690.16;;;22.14;51.93
29433;BME280;16405;53.964;13.448;2022-07-09T12:36:22;101690.63;;;22.30;51.49